KGDV

Dawson Community Airport

Glendive, Montana, USA
METAR KGDV 190656Z AUTO 20007KT 10SM SCT120 01/M03 A2961 RMK AO2 SLP050 T00061028 400441078 FZRANO
Observed Flight Rules
Jan-19 @ 06:56 UTC (31 minutes ago) Visual Flight Rules
Wind Visibility Clouds
200° at 7 knots 10 miles
  • Scattered at 12,000' AGL
Temperatures Readings
Current 1°C / 34°F
Dewpoint -3°C / 27°F
Humidity 75%
Altimeter 29.61" Hg
Pressure 1005 hPa
Elevation 749
METAR KGDV 190656Z AUTO 20007KT 10SM SCT120 01/M03 A2961 RMK AO2 SLP050 T00061028 400441078 FZRANO
Observed Flight Rules
Jan-19 @ 06:56 UTC
(31 minutes ago)
VFR
Wind Visibility
200° at 7 knots 10 miles
Clouds
  • Scattered at 12,000' AGL
Temperature Dewpoint
1°C / 34°F -3°C / 27°F
Humidity Altimeter Pressure
75% 29.61" Hg 1005 hPa